createdAt,value
2023-01-21T00:00:59.338Z,94420.22
2023-01-21T00:03:26.050Z,94427.50
2023-01-21T00:05:52.839Z,94425.13
2023-01-21T00:08:19.503Z,94426.63
2023-01-21T00:10:46.277Z,94422.31
2023-01-21T00:13:12.947Z,94422.19
2023-01-21T00:15:39.728Z,94425.16
2023-01-21T00:18:06.978Z,94426.47
2023-01-21T00:20:33.898Z,94421.03
2023-01-21T00:23:00.595Z,94433.53
2023-01-21T00:25:27.272Z,94428.06
2023-01-21T00:27:53.911Z,94430.38
2023-01-21T00:30:21.302Z,94428.66
2023-01-21T00:32:47.913Z,94427.06
2023-01-21T00:35:15.164Z,94427.84
2023-01-21T00:37:41.868Z,94428.88
2023-01-21T00:40:09.170Z,94424.00
2023-01-21T00:42:35.803Z,94430.16
2023-01-21T00:45:02.677Z,94425.59
2023-01-21T00:47:29.314Z,94431.84
2023-01-21T00:49:55.946Z,94434.53
2023-01-21T00:52:22.643Z,94434.19
2023-01-21T00:54:49.293Z,94434.41
2023-01-21T00:57:16.348Z,94435.66
2023-01-21T00:59:43.303Z,94443.47
2023-01-21T01:02:10.302Z,94440.44
2023-01-21T01:04:37.007Z,94438.97
2023-01-21T01:07:04.362Z,94443.53
2023-01-21T01:09:31.104Z,94448.97
2023-01-21T01:11:57.785Z,94443.16
2023-01-21T01:14:24.538Z,94450.44
2023-01-21T01:16:51.186Z,94451.13
2023-01-21T01:19:17.958Z,94449.09
2023-01-21T01:21:44.674Z,94449.97
2023-01-21T01:24:11.422Z,94461.97
2023-01-21T01:26:39.521Z,94459.03
2023-01-21T01:29:11.425Z,94460.50
2023-01-21T01:31:38.199Z,94460.84
2023-01-21T01:34:04.987Z,94474.13
2023-01-21T01:36:31.654Z,94470.81
2023-01-21T01:38:59.145Z,94471.81
2023-01-21T01:41:29.473Z,94466.38
2023-01-21T01:44:04.796Z,94466.03
2023-01-21T01:46:36.992Z,94470.44
2023-01-21T01:49:18.105Z,94471.91
2023-01-21T01:51:58.971Z,94464.06
2023-01-21T01:54:33.853Z,94463.84
2023-01-21T01:57:02.922Z,94474.88
2023-01-21T01:59:30.969Z,94471.47
2023-01-21T02:02:03.582Z,94469.44
2023-01-21T02:04:37.169Z,94476.69
2023-01-21T02:07:04.936Z,94477.38
2023-01-21T02:09:31.823Z,94471.91
2023-01-21T02:12:01.393Z,94476.31
2023-01-21T02:14:30.533Z,94471.56
2023-01-21T02:16:59.898Z,94476.09
2023-01-21T02:20:02.491Z,94473.06
2023-01-21T02:22:49.364Z,94475.88
2023-01-21T02:26:03.865Z,94478.28
2023-01-21T02:28:51.652Z,94473.84
2023-01-21T02:31:33.561Z,94477.84
2023-01-21T02:34:38.105Z,94477.03
2023-01-21T02:37:25.517Z,94474.44
2023-01-21T02:39:55.068Z,94479.00
2023-01-21T02:42:46.152Z,94476.16
2023-01-21T02:45:37.953Z,94484.78
2023-01-21T02:48:27.904Z,94487.97
2023-01-21T02:50:55.248Z,94486.38
2023-01-21T02:53:33.388Z,94484.13
2023-01-21T02:56:09.583Z,94480.25
2023-01-21T02:58:42.926Z,94485.25
2023-01-21T03:01:46.765Z,94488.81
2023-01-21T03:04:31.928Z,94490.19
2023-01-21T03:07:10.338Z,94494.16
2023-01-21T03:09:37.384Z,94490.66
2023-01-21T03:12:13.150Z,94490.22
2023-01-21T03:15:09.686Z,94496.56
2023-01-21T03:17:49.688Z,94488.50
2023-01-21T03:20:24.986Z,94489.66
2023-01-21T03:22:56.805Z,94486.81
2023-01-21T03:25:25.608Z,94492.84
2023-01-21T03:27:54.095Z,94480.81
2023-01-21T03:30:24.212Z,94484.00
2023-01-21T03:32:53.091Z,94484.44
2023-01-21T03:35:28.667Z,94480.91
2023-01-21T03:38:01.743Z,94476.13
2023-01-21T03:40:41.943Z,94474.88
2023-01-21T03:43:09.782Z,94471.94
2023-01-21T03:45:44.678Z,94477.38
2023-01-21T03:48:20.960Z,94478.50
2023-01-21T03:51:01.305Z,94471.94
2023-01-21T03:53:28.605Z,94474.19
2023-01-21T03:55:55.292Z,94464.19
2023-01-21T03:58:21.990Z,94474.63
2023-01-21T04:00:49.312Z,94479.88
2023-01-21T04:03:15.987Z,94477.69
2023-01-21T04:05:42.742Z,94485.53
2023-01-21T04:08:09.391Z,94476.53
2023-01-21T04:10:36.023Z,94476.75
2023-01-21T04:13:02.641Z,94473.94
2023-01-21T04:15:29.306Z,94476.09
2023-01-21T04:17:55.940Z,94480.31
2023-01-21T04:20:22.644Z,94482.13
2023-01-21T04:22:49.280Z,94469.81
2023-01-21T04:25:16.114Z,94478.44
2023-01-21T04:27:42.797Z,94482.75
2023-01-21T04:30:10.027Z,94475.94
2023-01-21T04:32:37.583Z,94477.31
2023-01-21T04:35:04.584Z,94479.72
2023-01-21T04:37:31.311Z,94483.56
2023-01-21T04:39:57.968Z,94478.78
2023-01-21T04:42:24.569Z,94485.72
2023-01-21T04:44:51.200Z,94478.13
2023-01-21T04:47:17.822Z,94485.94
2023-01-21T04:49:44.495Z,94483.91
2023-01-21T04:52:11.094Z,94482.88
2023-01-21T04:54:37.835Z,94483.00
2023-01-21T04:57:04.502Z,94479.59
2023-01-21T04:59:31.184Z,94482.88
2023-01-21T05:01:58.057Z,94488.19
2023-01-21T05:04:24.732Z,94481.25
2023-01-21T05:06:51.504Z,94483.72
2023-01-21T05:09:18.145Z,94482.84
2023-01-21T05:11:44.899Z,94485.44
2023-01-21T05:14:11.564Z,94487.41
2023-01-21T05:16:38.374Z,94489.34
2023-01-21T05:19:05.127Z,94491.97
2023-01-21T05:21:31.806Z,94487.88
2023-01-21T05:23:58.464Z,94488.34
2023-01-21T05:26:25.142Z,94481.75
2023-01-21T05:28:51.800Z,94484.19
2023-01-21T05:31:18.625Z,94487.97
2023-01-21T05:33:47.214Z,94482.72
2023-01-21T05:36:13.956Z,94477.19
2023-01-21T05:38:40.634Z,94484.91
2023-01-21T05:41:07.355Z,94488.19
2023-01-21T05:43:34.206Z,94487.31
2023-01-21T05:46:01.241Z,94485.50
2023-01-21T05:48:29.598Z,94495.72
2023-01-21T05:50:58.380Z,94492.88
2023-01-21T05:53:25.981Z,94495.03
2023-01-21T05:55:54.546Z,94491.41
2023-01-21T05:58:21.898Z,94501.88
2023-01-21T06:00:48.896Z,94504.47
2023-01-21T06:03:16.799Z,94498.47
2023-01-21T06:05:44.577Z,94508.13
2023-01-21T06:08:11.995Z,94504.34
2023-01-21T06:10:39.278Z,94506.75
2023-01-21T06:13:05.931Z,94509.38
2023-01-21T06:15:33.761Z,94508.44
2023-01-21T06:18:01.258Z,94514.03
2023-01-21T06:20:31.565Z,94513.09
2023-01-21T06:22:58.972Z,94516.41
2023-01-21T06:25:26.208Z,94514.38
2023-01-21T06:27:56.369Z,94516.19
2023-01-21T06:30:24.587Z,94513.00
2023-01-21T06:32:51.603Z,94520.63
2023-01-21T06:35:18.924Z,94521.75
2023-01-21T06:37:46.028Z,94521.41
2023-01-21T06:40:13.952Z,94523.81
2023-01-21T06:42:40.642Z,94530.16
2023-01-21T06:45:07.885Z,94527.31
2023-01-21T06:47:35.320Z,94535.84
2023-01-21T06:50:02.008Z,94537.22
2023-01-21T06:52:28.689Z,94540.75
2023-01-21T06:54:55.380Z,94540.31
2023-01-21T06:57:22.075Z,94542.69
2023-01-21T06:59:48.751Z,94551.31
2023-01-21T07:02:15.510Z,94551.31
2023-01-21T07:04:42.212Z,94553.25
2023-01-21T07:07:08.886Z,94554.41
2023-01-21T07:09:35.545Z,94546.09
2023-01-21T07:12:02.370Z,94555.66
2023-01-21T07:14:29.156Z,94550.44
2023-01-21T07:16:56.743Z,94551.22
2023-01-21T07:19:23.544Z,94557.69
2023-01-21T07:21:50.797Z,94566.69
2023-01-21T07:24:17.475Z,94571.25
2023-01-21T07:26:44.219Z,94567.03
2023-01-21T07:29:10.897Z,94571.59
2023-01-21T07:31:37.736Z,94572.47
2023-01-21T07:34:04.502Z,94580.44
2023-01-21T07:36:31.377Z,94580.78
2023-01-21T07:38:58.296Z,94573.25
2023-01-21T07:41:25.130Z,94577.47
2023-01-21T07:43:51.843Z,94570.53
2023-01-21T07:46:20.183Z,94572.78
2023-01-21T07:48:53.119Z,94571.28
2023-01-21T07:51:20.928Z,94576.63
2023-01-21T07:53:47.663Z,94571.59
2023-01-21T07:56:15.027Z,94576.00
2023-01-21T07:58:41.960Z,94583.25
2023-01-21T08:01:09.566Z,94579.13
2023-01-21T08:03:37.419Z,94572.19
2023-01-21T08:06:05.657Z,94572.28
2023-01-21T08:08:33.257Z,94574.38
2023-01-21T08:11:00.086Z,94570.34
2023-01-21T08:13:26.855Z,94583.53
2023-01-21T08:15:56.035Z,94572.56
2023-01-21T08:18:23.752Z,94570.03
2023-01-21T08:20:58.202Z,94570.84
2023-01-21T08:23:26.273Z,94575.94
2023-01-21T08:25:53.515Z,94571.63
2023-01-21T08:28:20.465Z,94568.41
2023-01-21T08:30:47.248Z,94552.94
2023-01-21T08:33:14.285Z,94560.19
2023-01-21T08:35:41.023Z,94563.69
2023-01-21T08:38:07.731Z,94564.72
2023-01-21T08:40:34.545Z,94565.91
2023-01-21T08:43:03.601Z,94569.81
2023-01-21T08:45:30.907Z,94577.75
2023-01-21T08:47:57.583Z,94582.22
2023-01-21T08:50:24.601Z,94572.19
2023-01-21T08:52:55.338Z,94579.78
2023-01-21T08:55:26.658Z,94580.38
2023-01-21T08:57:54.637Z,94589.94
2023-01-21T09:00:23.789Z,94592.72
2023-01-21T09:02:51.748Z,94588.06
2023-01-21T09:05:19.287Z,94598.19
2023-01-21T09:07:46.411Z,94596.50
2023-01-21T09:10:33.888Z,94595.59
2023-01-21T09:13:09.992Z,94597.91
2023-01-21T09:15:43.885Z,94600.28
2023-01-21T09:18:11.061Z,94600.72
2023-01-21T09:20:39.452Z,94603.13
2023-01-21T09:23:28.102Z,94596.63
2023-01-21T09:26:05.619Z,94612.84
2023-01-21T09:28:38.560Z,94617.31
2023-01-21T09:31:08.216Z,94631.06
2023-01-21T09:33:37.426Z,94632.56
2023-01-21T09:36:06.942Z,94634.06
2023-01-21T09:38:33.892Z,94632.09
2023-01-21T09:41:18.589Z,94644.31
2023-01-21T09:43:59.027Z,94639.31
2023-01-21T09:47:04.677Z,94631.66
2023-01-21T09:49:37.463Z,94634.63
2023-01-21T09:52:28.972Z,94629.22
2023-01-21T09:54:57.389Z,94619.19
2023-01-21T09:57:36.208Z,94622.63
2023-01-21T10:00:27.483Z,94617.59
2023-01-21T10:03:24.836Z,94619.13
2023-01-21T10:06:16.578Z,94616.09
2023-01-21T10:08:45.945Z,94615.69
2023-01-21T10:11:12.612Z,94618.47
2023-01-21T10:14:00.527Z,94616.47
2023-01-21T10:16:48.267Z,94626.16
2023-01-21T10:19:22.437Z,94617.56
2023-01-21T10:21:55.840Z,94619.97
2023-01-21T10:24:30.440Z,94610.00
2023-01-21T10:26:58.434Z,94616.13
2023-01-21T10:29:27.031Z,94610.09
2023-01-21T10:31:59.629Z,94610.09
2023-01-21T10:34:31.324Z,94620.44
2023-01-21T10:37:16.670Z,94615.97
2023-01-21T10:40:04.638Z,94619.00
2023-01-21T10:42:55.342Z,94615.19
2023-01-21T10:45:26.828Z,94612.09
2023-01-21T10:48:26.908Z,94609.44
2023-01-21T10:51:04.579Z,94608.03
2023-01-21T10:54:03.162Z,94616.69
2023-01-21T10:56:42.100Z,94618.41
2023-01-21T10:59:15.017Z,94610.84
2023-01-21T11:01:50.364Z,94616.97
2023-01-21T11:04:21.369Z,94615.16
2023-01-21T11:07:06.434Z,94610.63
2023-01-21T11:09:38.584Z,94606.09
2023-01-21T11:12:05.476Z,94606.91
2023-01-21T11:14:32.105Z,94603.63
2023-01-21T11:16:59.263Z,94599.19
2023-01-21T11:19:31.958Z,94598.22
2023-01-21T11:22:06.144Z,94605.16
2023-01-21T11:24:43.591Z,94595.44
2023-01-21T11:27:32.990Z,94592.28
2023-01-21T11:29:59.941Z,94592.44
2023-01-21T11:32:28.788Z,94590.44
2023-01-21T11:35:20.297Z,94590.53
2023-01-21T11:37:47.126Z,94588.03
2023-01-21T11:40:24.914Z,94589.09
2023-01-21T11:42:54.595Z,94588.63
2023-01-21T11:45:32.818Z,94580.25
2023-01-21T11:48:00.444Z,94578.03
2023-01-21T11:50:29.735Z,94582.00
2023-01-21T11:53:14.154Z,94578.69
2023-01-21T11:55:50.165Z,94581.41
2023-01-21T11:58:34.727Z,94581.13
2023-01-21T12:01:04.390Z,94574.22
2023-01-21T12:03:37.164Z,94569.06
2023-01-21T12:06:06.771Z,94567.41
2023-01-21T12:08:36.929Z,94574.50
2023-01-21T12:11:06.624Z,94565.63
2023-01-21T12:14:04.283Z,94563.53
2023-01-21T12:16:35.287Z,94561.94
2023-01-21T12:19:04.896Z,94566.72
2023-01-21T12:21:40.488Z,94566.16
2023-01-21T12:24:40.680Z,94562.19
2023-01-21T12:27:38.646Z,94555.41
2023-01-21T12:30:43.901Z,94562.88
2023-01-21T12:33:19.352Z,94553.56
2023-01-21T12:35:51.450Z,94552.47
2023-01-21T12:38:26.943Z,94556.47
2023-01-21T12:41:10.649Z,94553.47
2023-01-21T12:43:43.163Z,94556.34
2023-01-21T12:46:21.577Z,94551.63
2023-01-21T12:48:54.409Z,94563.75
2023-01-21T12:51:29.249Z,94557.44
2023-01-21T12:54:17.938Z,94556.88
2023-01-21T12:57:06.488Z,94558.63
2023-01-21T12:59:45.193Z,94560.59
2023-01-21T13:02:17.869Z,94556.25
2023-01-21T13:04:58.387Z,94567.03
2023-01-21T13:07:49.895Z,94564.72
2023-01-21T13:10:39.133Z,94563.91
2023-01-21T13:13:25.462Z,94565.19
2023-01-21T13:15:59.206Z,94560.31
2023-01-21T13:18:32.634Z,94567.03
2023-01-21T13:21:11.962Z,94567.34
2023-01-21T13:23:49.636Z,94565.03
2023-01-21T13:26:34.440Z,94562.91
2023-01-21T13:29:16.380Z,94572.53
2023-01-21T13:31:55.435Z,94573.53
2023-01-21T13:34:35.017Z,94570.06
2023-01-21T13:37:23.795Z,94580.25
2023-01-21T13:40:21.887Z,94575.25
2023-01-21T13:42:55.958Z,94568.41
2023-01-21T13:45:48.080Z,94584.00
2023-01-21T13:48:52.134Z,94573.41
2023-01-21T13:51:32.995Z,94583.91
2023-01-21T13:54:27.101Z,94592.38
2023-01-21T13:57:26.788Z,94583.91
2023-01-21T13:59:59.326Z,94581.22
2023-01-21T14:02:38.393Z,94583.06
2023-01-21T14:05:29.107Z,94590.69
2023-01-21T14:08:04.914Z,94585.88
2023-01-21T14:10:41.375Z,94592.16
2023-01-21T14:13:45.912Z,94599.34
2023-01-21T14:16:42.836Z,94601.44
2023-01-21T14:19:31.007Z,94609.53
2023-01-21T14:22:09.810Z,94604.69
2023-01-21T14:24:43.995Z,94607.53
2023-01-21T14:27:36.464Z,94613.50
2023-01-21T14:30:13.411Z,94622.63
2023-01-21T14:32:43.075Z,94622.53
2023-01-21T14:35:28.316Z,94626.75
2023-01-21T14:38:10.079Z,94624.13
2023-01-21T14:40:45.522Z,94629.53
2023-01-21T14:43:31.583Z,94624.72
2023-01-21T14:46:00.699Z,94633.38
2023-01-21T14:48:38.391Z,94627.91
2023-01-21T14:51:08.168Z,94631.00
2023-01-21T14:53:44.062Z,94632.59
2023-01-21T14:56:22.228Z,94633.16
2023-01-21T14:58:58.917Z,94638.41
2023-01-21T15:01:28.010Z,94635.78
2023-01-21T15:03:56.637Z,94631.72
2023-01-21T15:06:24.555Z,94639.50
2023-01-21T15:08:56.285Z,94645.47
2023-01-21T15:11:40.491Z,94644.84
2023-01-21T15:14:22.475Z,94653.84
2023-01-21T15:16:49.193Z,94647.00
2023-01-21T15:19:19.198Z,94652.94
2023-01-21T15:22:04.063Z,94650.00
2023-01-21T15:24:38.860Z,94650.09
2023-01-21T15:27:25.868Z,94645.88
2023-01-21T15:29:58.939Z,94651.91
2023-01-21T15:32:35.360Z,94653.97
2023-01-21T15:35:13.803Z,94653.28
2023-01-21T15:37:44.051Z,94661.94
2023-01-21T15:40:28.692Z,94658.75
2023-01-21T15:43:03.255Z,94663.13
2023-01-21T15:45:42.148Z,94659.84
2023-01-21T15:48:40.898Z,94654.59
2023-01-21T15:51:39.835Z,94659.22
2023-01-21T15:54:24.880Z,94668.28
2023-01-21T15:57:25.715Z,94661.34
2023-01-21T16:00:23.079Z,94669.47
2023-01-21T16:03:02.470Z,94667.16
2023-01-21T16:05:29.166Z,94669.06
2023-01-21T16:08:21.166Z,94673.19
2023-01-21T16:11:32.541Z,94674.72
2023-01-21T16:14:17.164Z,94673.81
2023-01-21T16:17:18.351Z,94663.56
2023-01-21T16:19:49.706Z,94660.50
2023-01-21T16:22:22.239Z,94660.50
2023-01-21T16:24:55.832Z,94672.03
2023-01-21T16:27:30.898Z,94673.41
2023-01-21T16:29:59.678Z,94680.38
2023-01-21T16:32:27.180Z,94675.63
2023-01-21T16:34:54.538Z,94680.06
2023-01-21T16:37:24.227Z,94670.38
2023-01-21T16:39:55.730Z,94684.03
2023-01-21T16:42:33.933Z,94676.88
2023-01-21T16:45:00.807Z,94678.84
2023-01-21T16:47:37.210Z,94684.41
2023-01-21T16:50:05.622Z,94691.81
2023-01-21T16:52:32.520Z,94681.78
2023-01-21T16:54:59.223Z,94691.34
2023-01-21T16:57:31.678Z,94683.94
2023-01-21T17:00:02.230Z,94692.97
2023-01-21T17:02:32.267Z,94690.88
2023-01-21T17:05:08.311Z,94688.75
2023-01-21T17:07:48.392Z,94695.31
2023-01-21T17:10:15.015Z,94700.75
2023-01-21T17:12:47.668Z,94690.41
2023-01-21T17:15:41.399Z,94700.56
2023-01-21T17:18:21.847Z,94694.78
2023-01-21T17:21:08.505Z,94701.13
2023-01-21T17:23:39.818Z,94696.38
2023-01-21T17:26:17.167Z,94701.94
2023-01-21T17:28:59.857Z,94701.94
2023-01-21T17:31:28.423Z,94708.19
2023-01-21T17:34:20.725Z,94709.50
2023-01-21T17:36:50.553Z,94714.25
2023-01-21T17:39:48.624Z,94719.41
2023-01-21T17:42:18.142Z,94722.59
2023-01-21T17:44:48.882Z,94714.25
2023-01-21T17:47:43.722Z,94716.00
2023-01-21T17:50:28.862Z,94720.22
2023-01-21T17:53:03.465Z,94716.78
2023-01-21T17:55:31.690Z,94730.78
2023-01-21T17:58:04.480Z,94723.63
2023-01-21T18:00:42.767Z,94722.50
2023-01-21T18:03:10.837Z,94724.91
2023-01-21T18:05:39.767Z,94723.63
2023-01-21T18:08:17.549Z,94722.00
2023-01-21T18:10:45.965Z,94725.41
2023-01-21T18:13:14.491Z,94723.47
2023-01-21T18:15:43.104Z,94729.69
2023-01-21T18:18:22.143Z,94730.31
2023-01-21T18:20:48.898Z,94725.75
2023-01-21T18:23:18.049Z,94728.47
2023-01-21T18:25:52.349Z,94731.56
2023-01-21T18:28:21.564Z,94728.25
2023-01-21T18:30:48.909Z,94722.56
2023-01-21T18:33:15.859Z,94723.03
2023-01-21T18:35:47.672Z,94714.34
2023-01-21T18:38:19.126Z,94710.94
2023-01-21T18:40:46.037Z,94709.34
2023-01-21T18:43:12.736Z,94714.25
2023-01-21T18:45:40.075Z,94720.63
2023-01-21T18:48:12.230Z,94716.06
2023-01-21T18:50:38.911Z,94715.59
2023-01-21T18:53:06.165Z,94716.50
2023-01-21T18:55:32.880Z,94715.25
2023-01-21T18:57:59.720Z,94714.56
2023-01-21T19:00:31.442Z,94713.28
2023-01-21T19:03:01.207Z,94712.97
2023-01-21T19:05:33.981Z,94710.00
2023-01-21T19:08:06.221Z,94715.00
2023-01-21T19:10:32.911Z,94711.59
2023-01-21T19:12:59.565Z,94712.50
2023-01-21T19:15:28.302Z,94701.75
2023-01-21T19:17:56.227Z,94704.13
2023-01-21T19:20:29.488Z,94709.94
2023-01-21T19:22:56.690Z,94707.97
2023-01-21T19:25:26.197Z,94704.13
2023-01-21T19:27:56.145Z,94699.13
2023-01-21T19:30:31.379Z,94705.47
2023-01-21T19:33:00.772Z,94698.41
2023-01-21T19:35:32.452Z,94698.75
2023-01-21T19:38:00.364Z,94701.94
2023-01-21T19:40:28.720Z,94704.00
2023-01-21T19:42:55.654Z,94699.88
2023-01-21T19:45:24.401Z,94707.19
2023-01-21T19:47:51.591Z,94701.69
2023-01-21T19:50:26.578Z,94703.16
2023-01-21T19:52:54.629Z,94697.66
2023-01-21T19:55:24.280Z,94705.22
2023-01-21T19:58:02.019Z,94700.19
2023-01-21T20:00:32.030Z,94702.03
2023-01-21T20:02:59.606Z,94701.56
2023-01-21T20:05:33.776Z,94705.22
2023-01-21T20:08:02.393Z,94707.03
2023-01-21T20:10:30.510Z,94701.78
2023-01-21T20:12:58.008Z,94705.69
2023-01-21T20:15:34.172Z,94711.50
2023-01-21T20:18:02.441Z,94717.69
2023-01-21T20:20:31.500Z,94709.69
2023-01-21T20:22:59.713Z,94718.00
2023-01-21T20:25:37.649Z,94712.75
2023-01-21T20:28:16.049Z,94727.25
2023-01-21T20:30:42.735Z,94718.25
2023-01-21T20:33:11.812Z,94719.69
2023-01-21T20:35:38.550Z,94718.81
2023-01-21T20:38:10.318Z,94722.13
2023-01-21T20:40:37.065Z,94719.28
2023-01-21T20:43:03.781Z,94729.19
2023-01-21T20:45:34.348Z,94719.28
2023-01-21T20:48:03.162Z,94724.06
2023-01-21T20:50:35.318Z,94724.06
2023-01-21T20:53:05.200Z,94724.16
2023-01-21T20:55:31.980Z,94729.22
2023-01-21T20:57:58.689Z,94723.03
2023-01-21T21:00:28.006Z,94727.00
2023-01-21T21:02:55.599Z,94725.47
2023-01-21T21:05:22.554Z,94713.16
2023-01-21T21:07:49.471Z,94721.19
2023-01-21T21:10:22.980Z,94718.56
2023-01-21T21:12:50.415Z,94713.31
2023-01-21T21:15:19.342Z,94719.38
2023-01-21T21:17:48.281Z,94717.94
2023-01-21T21:20:24.713Z,94724.78
2023-01-21T21:22:51.821Z,94715.25
2023-01-21T21:25:21.073Z,94718.97
2023-01-21T21:27:48.493Z,94709.19
2023-01-21T21:30:21.994Z,94715.38
2023-01-21T21:32:48.777Z,94717.69
2023-01-21T21:35:33.312Z,94712.06
2023-01-21T21:38:04.391Z,94710.22
2023-01-21T21:40:31.567Z,94712.13
2023-01-21T21:43:17.595Z,94704.91
2023-01-21T21:46:03.201Z,94712.88
2023-01-21T21:48:39.370Z,94708.41
2023-01-21T21:51:07.719Z,94705.94
2023-01-21T21:53:34.491Z,94696.06
2023-01-21T21:56:05.436Z,94703.06
2023-01-21T21:58:32.319Z,94695.91
2023-01-21T22:01:09.516Z,94702.13
2023-01-21T22:03:36.209Z,94700.03
2023-01-21T22:06:04.086Z,94699.97
2023-01-21T22:08:35.480Z,94691.19
2023-01-21T22:11:04.792Z,94688.81
2023-01-21T22:13:33.782Z,94691.66
2023-01-21T22:16:01.662Z,94689.72
2023-01-21T22:18:29.995Z,94690.88
2023-01-21T22:21:05.604Z,94681.41
2023-01-21T22:23:34.304Z,94683.09
2023-01-21T22:26:02.608Z,94687.78
2023-01-21T22:28:29.395Z,94688.34
2023-01-21T22:31:02.474Z,94680.13
2023-01-21T22:33:29.183Z,94690.41
2023-01-21T22:35:55.883Z,94677.13
2023-01-21T22:38:22.552Z,94680.13
2023-01-21T22:40:53.877Z,94686.75
2023-01-21T22:43:21.070Z,94684.84
2023-01-21T22:45:48.533Z,94680.31
2023-01-21T22:48:15.893Z,94682.63
2023-01-21T22:50:44.554Z,94684.44
2023-01-21T22:53:13.880Z,94676.34
2023-01-21T22:55:40.616Z,94677.38
2023-01-21T22:58:07.356Z,94683.25
2023-01-21T23:00:39.395Z,94681.19
2023-01-21T23:03:07.552Z,94683.34
2023-01-21T23:05:35.343Z,94679.19
2023-01-21T23:08:02.104Z,94683.09
2023-01-21T23:10:28.929Z,94679.19
2023-01-21T23:12:55.597Z,94685.56
2023-01-21T23:15:22.962Z,94684.06
2023-01-21T23:17:50.295Z,94676.66
2023-01-21T23:20:17.576Z,94677.13
2023-01-21T23:22:44.876Z,94683.03
2023-01-21T23:25:13.580Z,94672.31
2023-01-21T23:27:40.877Z,94675.16
2023-01-21T23:30:08.444Z,94671.31
2023-01-21T23:32:35.108Z,94661.84
2023-01-21T23:35:01.811Z,94657.63
2023-01-21T23:37:28.634Z,94661.00
2023-01-21T23:39:55.264Z,94659.78
2023-01-21T23:42:23.702Z,94659.63
2023-01-21T23:44:51.135Z,94660.72
2023-01-21T23:47:18.174Z,94658.91
2023-01-21T23:49:44.887Z,94654.06
2023-01-21T23:52:12.662Z,94654.69
2023-01-21T23:54:46.091Z,94644.50
2023-01-21T23:57:13.164Z,94650.09
2023-01-21T23:59:39.950Z,94643.94
